Time;durP1;ratioP1;P1;durP2;ratioP2;P2;SDS_P1;SDS_P2;PMS_P1;PMS_P2;Temp;Humidity;BMP_temperature;BMP_pressure;BME280_temperature;BME280_humidity;BME280_pressure;Samples;Min_cycle;Max_cycle;Signal;HPM_P1;HPM_P2
2024/05/08 00:01:10;;;;;;;;;;;12.00;99.90;;;;;;4990315;28;19922;-74
2024/05/08 00:03:35;;;;;;;;;;;12.00;99.90;;;;;;4973351;28;19929;-74
2024/05/08 00:06:01;;;;;;;;;;;11.90;99.90;;;;;;4991861;28;20363;-74
2024/05/08 00:08:28;;;;;;;;;;;11.90;99.90;;;;;;4978370;28;20267;-74
2024/05/08 00:10:54;;;;;;;;;;;11.80;99.90;;;;;;4985065;28;19922;-74
2024/05/08 00:13:19;;;;;;;;;;;11.80;99.90;;;;;;4989969;28;21737;-74
2024/05/08 00:15:45;;;;;;;;;;;11.70;99.90;;;;;;4979867;28;21081;-74
2024/05/08 00:18:10;;;;;;;;;;;11.60;99.90;;;;;;4994527;28;19921;-74
2024/05/08 00:20:36;;;;;;;;;;;11.50;99.90;;;;;;4982721;28;19925;-74
2024/05/08 00:23:02;;;;;;;;;;;11.40;99.90;;;;;;4991213;28;19934;-75
2024/05/08 00:25:27;;;;;;;;;;;11.30;99.90;;;;;;4984017;28;19922;-75
2024/05/08 00:27:53;;;;;;;;;;;11.20;99.90;;;;;;4992716;28;19926;-75
2024/05/08 00:30:18;;;;;;;;;;;11.20;99.90;;;;;;4972454;28;20048;-75
2024/05/08 00:32:44;;;;;;;;;;;11.20;99.90;;;;;;4991492;28;19921;-75
2024/05/08 00:35:09;;;;;;;;;;;11.20;99.90;;;;;;4975435;28;19929;-75
2024/05/08 00:37:35;;;;;;;;;;;11.20;99.90;;;;;;4983808;28;19921;-75
2024/05/08 00:40:01;;;;;;;;;;;11.30;99.90;;;;;;4981212;28;19931;-74
2024/05/08 00:42:26;;;;;;;;;;;11.40;99.90;;;;;;4985278;28;19922;-75
2024/05/08 00:44:52;;;;;;;;;;;11.50;99.90;;;;;;4977279;28;20460;-75
2024/05/08 00:47:18;;;;;;;;;;;11.60;99.90;;;;;;4991462;28;19983;-74
2024/05/08 00:49:43;;;;;;;;;;;11.70;99.90;;;;;;4974136;28;19968;-75
2024/05/08 00:52:09;;;;;;;;;;;11.60;99.90;;;;;;4988186;28;19922;-74
2024/05/08 00:54:35;;;;;;;;;;;11.60;99.90;;;;;;4994653;28;19926;-74
2024/05/08 00:57:01;;;;;;;;;;;11.50;99.90;;;;;;4971583;28;19957;-74
2024/05/08 00:59:27;;;;;;;;;;;11.50;99.90;;;;;;4990350;28;19922;-74
2024/05/08 01:01:53;;;;;;;;;;;11.40;99.90;;;;;;4973535;28;19922;-74
2024/05/08 01:04:18;;;;;;;;;;;11.30;99.90;;;;;;4986208;28;20024;-74
2024/05/08 01:06:46;;;;;;;;;;;11.10;99.90;;;;;;4975399;28;19961;-74
2024/05/08 01:09:11;;;;;;;;;;;10.90;99.90;;;;;;4986991;28;19921;-74
2024/05/08 01:11:52;;;;;;;;;;;10.80;99.90;;;;;;4975187;28;20453;-74
2024/05/08 01:14:18;;;;;;;;;;;10.80;99.90;;;;;;4989431;28;19925;-74
2024/05/08 01:16:46;;;;;;;;;;;10.70;99.90;;;;;;4972190;28;19922;-74
2024/05/08 01:19:12;;;;;;;;;;;10.70;99.90;;;;;;4992178;28;21422;-74
2024/05/08 01:21:38;;;;;;;;;;;10.70;99.90;;;;;;4977263;28;19940;-74
2024/05/08 01:24:04;;;;;;;;;;;10.70;99.90;;;;;;4985972;28;19918;-74
2024/05/08 01:26:29;;;;;;;;;;;10.70;99.90;;;;;;4981924;28;20368;-74
2024/05/08 01:28:56;;;;;;;;;;;10.50;99.90;;;;;;4990867;28;19929;-74
2024/05/08 01:31:23;;;;;;;;;;;10.40;99.90;;;;;;4976753;28;19921;-74
2024/05/08 01:33:48;;;;;;;;;;;10.40;99.90;;;;;;4991517;28;19921;-75
2024/05/08 01:36:14;;;;;;;;;;;10.40;99.90;;;;;;4981730;28;19964;-74
2024/05/08 01:38:39;;;;;;;;;;;10.40;99.90;;;;;;4993994;28;19955;-73
2024/05/08 01:41:05;;;;;;;;;;;10.30;99.90;;;;;;4995806;28;20004;-74
2024/05/08 01:43:30;;;;;;;;;;;10.30;99.90;;;;;;4972575;28;20023;-73
2024/05/08 01:45:56;;;;;;;;;;;10.30;99.90;;;;;;4989077;28;19922;-73
2024/05/08 01:48:22;;;;;;;;;;;10.20;99.90;;;;;;4969878;28;19926;-74
2024/05/08 01:50:47;;;;;;;;;;;10.20;99.90;;;;;;4982377;28;19928;-74
2024/05/08 01:53:13;;;;;;;;;;;10.10;99.90;;;;;;4975764;28;19964;-74
2024/05/08 01:55:39;;;;;;;;;;;10.10;99.90;;;;;;4990365;28;19978;-74
2024/05/08 01:58:04;;;;;;;;;;;9.90;99.90;;;;;;4975195;28;19929;-74
2024/05/08 02:00:30;;;;;;;;;;;10.00;99.90;;;;;;4988038;28;19928;-74
2024/05/08 02:02:55;;;;;;;;;;;10.00;99.90;;;;;;4973480;28;19922;-74
2024/05/08 02:05:21;;;;;;;;;;;9.90;99.90;;;;;;4983424;28;20361;-73
2024/05/08 02:07:47;;;;;;;;;;;9.80;99.90;;;;;;4974937;28;19931;-74
2024/05/08 02:10:12;;;;;;;;;;;9.80;99.90;;;;;;4981230;28;19922;-74
2024/05/08 02:12:38;;;;;;;;;;;9.80;99.90;;;;;;4973544;28;19925;-75
2024/05/08 02:15:04;;;;;;;;;;;9.80;99.90;;;;;;4987116;28;19956;-74
2024/05/08 02:17:29;;;;;;;;;;;9.70;99.90;;;;;;4976795;28;20132;-75
2024/05/08 02:19:55;;;;;;;;;;;9.70;99.90;;;;;;4982228;28;19918;-75
2024/05/08 02:22:20;;;;;;;;;;;9.60;99.90;;;;;;4985410;28;20437;-75
2024/05/08 02:24:46;;;;;;;;;;;9.60;99.90;;;;;;4972482;28;19914;-75
2024/05/08 02:27:11;;;;;;;;;;;9.50;99.90;;;;;;4991465;28;19921;-74
2024/05/08 02:29:37;;;;;;;;;;;9.50;99.90;;;;;;4972586;28;20617;-74
2024/05/08 02:32:02;;;;;;;;;;;9.40;99.90;;;;;;4987521;28;19918;-75
2024/05/08 02:34:28;;;;;;;;;;;9.30;99.90;;;;;;4979216;28;19960;-74
2024/05/08 02:36:54;;;;;;;;;;;9.20;99.90;;;;;;4981440;28;19921;-74
2024/05/08 02:39:19;;;;;;;;;;;9.20;99.90;;;;;;4976347;28;20369;-75
2024/05/08 02:41:45;;;;;;;;;;;9.20;99.90;;;;;;4988416;28;19922;-75
2024/05/08 02:44:10;;;;;;;;;;;9.20;99.90;;;;;;4972913;28;19925;-74
2024/05/08 02:46:35;;;;;;;;;;;9.10;99.90;;;;;;4989581;28;19922;-75
2024/05/08 02:49:01;;;;;;;;;;;9.10;99.90;;;;;;4975386;28;19928;-74
2024/05/08 02:51:27;;;;;;;;;;;9.20;99.90;;;;;;4983836;28;19917;-75
2024/05/08 02:53:52;;;;;;;;;;;9.20;99.90;;;;;;4980598;28;19922;-75
2024/05/08 02:56:18;;;;;;;;;;;9.20;99.90;;;;;;4984169;28;19921;-74
2024/05/08 02:58:44;;;;;;;;;;;9.10;99.90;;;;;;4989452;28;19924;-74
2024/05/08 03:01:09;;;;;;;;;;;9.10;99.90;;;;;;4971906;28;19925;-75
2024/05/08 03:03:35;;;;;;;;;;;9.00;99.90;;;;;;4985881;28;19928;-74
2024/05/08 03:06:02;;;;;;;;;;;9.00;99.90;;;;;;4979354;28;19929;-75
2024/05/08 03:08:28;;;;;;;;;;;9.00;99.90;;;;;;4989069;28;20239;-74
2024/05/08 03:10:53;;;;;;;;;;;9.00;99.90;;;;;;4972977;28;19976;-74
2024/05/08 03:13:19;;;;;;;;;;;9.00;99.90;;;;;;4991790;28;19921;-74
2024/05/08 03:15:45;;;;;;;;;;;9.00;99.90;;;;;;4977044;28;20030;-75
2024/05/08 03:18:10;;;;;;;;;;;9.00;99.90;;;;;;4987449;28;21329;-74
2024/05/08 03:20:36;;;;;;;;;;;9.00;99.90;;;;;;4978256;28;19921;-74
2024/05/08 03:23:02;;;;;;;;;;;9.00;99.90;;;;;;4986645;28;20331;-74
2024/05/08 03:25:27;;;;;;;;;;;9.10;99.90;;;;;;4972500;28;19921;-74
2024/05/08 03:27:53;;;;;;;;;;;9.00;99.90;;;;;;4993864;28;19913;-74
2024/05/08 03:30:18;;;;;;;;;;;9.00;99.90;;;;;;4977831;28;20391;-74
2024/05/08 03:32:44;;;;;;;;;;;9.00;99.90;;;;;;4994110;28;19928;-74
2024/05/08 03:35:09;;;;;;;;;;;9.00;99.90;;;;;;4981813;28;20003;-75
2024/05/08 03:37:37;;;;;;;;;;;9.00;99.90;;;;;;4987751;28;19929;-74
2024/05/08 03:40:03;;;;;;;;;;;8.90;99.90;;;;;;4992039;28;20674;-74
2024/05/08 03:42:28;;;;;;;;;;;8.90;99.90;;;;;;4978405;28;20001;-74
2024/05/08 03:44:54;;;;;;;;;;;8.90;99.90;;;;;;4987203;28;19914;-74
2024/05/08 03:47:19;;;;;;;;;;;8.90;99.90;;;;;;4978980;28;19936;-75
2024/05/08 03:49:45;;;;;;;;;;;8.90;99.90;;;;;;4992535;28;19922;-74
2024/05/08 03:52:10;;;;;;;;;;;8.80;99.90;;;;;;4974301;28;19922;-75
2024/05/08 03:54:36;;;;;;;;;;;8.80;99.90;;;;;;4993098;28;20004;-75
2024/05/08 03:57:01;;;;;;;;;;;8.70;99.90;;;;;;4977078;28;20456;-75
2024/05/08 03:59:30;;;;;;;;;;;8.60;99.90;;;;;;4994648;28;20589;-75
2024/05/08 04:01:56;;;;;;;;;;;8.50;99.90;;;;;;4977259;28;19964;-74
2024/05/08 04:04:21;;;;;;;;;;;8.40;99.90;;;;;;4975314;28;19922;-74
2024/05/08 04:06:47;;;;;;;;;;;8.40;99.90;;;;;;4983015;28;20267;-74
2024/05/08 04:09:12;;;;;;;;;;;8.30;99.90;;;;;;4988756;28;20453;-74
2024/05/08 04:11:40;;;;;;;;;;;8.30;99.90;;;;;;4977762;28;20504;-74
2024/05/08 04:14:05;;;;;;;;;;;8.30;99.90;;;;;;4984263;28;21022;-74
2024/05/08 04:16:32;;;;;;;;;;;8.40;99.90;;;;;;4977592;28;19986;-74
2024/05/08 04:18:57;;;;;;;;;;;8.50;99.90;;;;;;4991682;28;20397;-74
2024/05/08 04:21:23;;;;;;;;;;;8.60;99.90;;;;;;4989320;28;19929;-74
2024/05/08 04:23:48;;;;;;;;;;;8.70;99.90;;;;;;4974842;28;19954;-74
2024/05/08 04:26:14;;;;;;;;;;;8.70;99.90;;;;;;4995998;28;19920;-74
2024/05/08 04:28:39;;;;;;;;;;;8.80;99.90;;;;;;4982548;28;19913;-75
2024/05/08 04:31:05;;;;;;;;;;;8.90;99.90;;;;;;4988149;28;20410;-75
2024/05/08 04:33:30;;;;;;;;;;;9.00;99.90;;;;;;4981818;28;20366;-74
2024/05/08 04:35:56;;;;;;;;;;;9.10;99.90;;;;;;4990529;28;19921;-74
2024/05/08 04:38:21;;;;;;;;;;;9.10;99.90;;;;;;4972053;28;19953;-74
2024/05/08 04:40:47;;;;;;;;;;;9.20;99.90;;;;;;4991988;28;20004;-74
2024/05/08 04:43:12;;;;;;;;;;;9.30;99.90;;;;;;4974589;28;19921;-75
2024/05/08 04:45:38;;;;;;;;;;;9.40;99.90;;;;;;4987304;28;19925;-74
2024/05/08 04:48:04;;;;;;;;;;;9.50;99.90;;;;;;4977256;28;19917;-75
2024/05/08 04:50:30;;;;;;;;;;;9.60;99.90;;;;;;4991565;28;19964;-75
2024/05/08 04:52:56;;;;;;;;;;;9.80;99.90;;;;;;4978779;28;20028;-75
2024/05/08 04:55:21;;;;;;;;;;;9.90;99.90;;;;;;4993739;28;20399;-75
2024/05/08 04:57:47;;;;;;;;;;;9.80;99.90;;;;;;4978801;28;19926;-76
2024/05/08 05:00:12;;;;;;;;;;;9.80;99.90;;;;;;4991293;28;19928;-73
2024/05/08 05:02:38;;;;;;;;;;;10.00;99.90;;;;;;4989439;28;20051;-75
2024/05/08 05:05:04;;;;;;;;;;;10.10;99.90;;;;;;4980608;28;19964;-75
2024/05/08 05:07:29;;;;;;;;;;;10.20;99.90;;;;;;4994847;28;19971;-75
2024/05/08 05:09:55;;;;;;;;;;;10.30;99.90;;;;;;4978963;28;20302;-75
2024/05/08 05:12:20;;;;;;;;;;;10.30;99.90;;;;;;4990958;28;19949;-74
2024/05/08 05:14:46;;;;;;;;;;;10.40;99.90;;;;;;4978470;28;19914;-76
2024/05/08 05:17:12;;;;;;;;;;;10.40;99.90;;;;;;4990868;28;20289;-75
2024/05/08 05:19:37;;;;;;;;;;;10.50;99.90;;;;;;4972736;28;19917;-75
2024/05/08 05:22:03;;;;;;;;;;;10.50;99.90;;;;;;4988515;28;19948;-75
2024/05/08 05:24:28;;;;;;;;;;;10.60;99.90;;;;;;4973879;28;19921;-75
2024/05/08 05:26:54;;;;;;;;;;;10.60;99.90;;;;;;4980616;28;19979;-75
2024/05/08 05:29:19;;;;;;;;;;;10.70;99.90;;;;;;4974635;28;19967;-75
2024/05/08 05:33:56;;;;;;;;;;;10.70;99.90;;;;;;4986017;28;19929;-75
2024/05/08 05:34:30;;;;;;;;;;;10.80;99.90;;;;;;4978199;28;19917;-74
2024/05/08 05:36:56;;;;;;;;;;;11.00;99.90;;;;;;4988004;28;19952;-75
2024/05/08 05:39:21;;;;;;;;;;;11.00;99.90;;;;;;4979603;28;20269;-75
2024/05/08 05:46:42;;;;;;;;;;;11.20;99.90;;;;;;4968848;28;19930;-76
2024/05/08 05:47:18;;;;;;;;;;;11.10;99.90;;;;;;4988063;28;20389;-75
2024/05/08 05:49:43;;;;;;;;;;;11.00;99.90;;;;;;4977999;28;19937;-75
2024/05/08 05:52:09;;;;;;;;;;;11.10;99.90;;;;;;4986792;28;19928;-75
2024/05/08 05:54:35;;;;;;;;;;;11.00;99.90;;;;;;4990037;28;20932;-75
2024/05/08 05:57:00;;;;;;;;;;;11.20;99.90;;;;;;4973504;28;19924;-75
2024/05/08 05:59:26;;;;;;;;;;;11.20;99.90;;;;;;4989433;28;20044;-75
2024/05/08 06:01:51;;;;;;;;;;;11.30;99.90;;;;;;4976598;28;19922;-76
2024/05/08 06:04:16;;;;;;;;;;;11.10;99.90;;;;;;4970434;28;19920;-75
2024/05/08 06:06:42;;;;;;;;;;;11.10;99.90;;;;;;4976302;28;19925;-74
2024/05/08 06:09:08;;;;;;;;;;;11.10;99.90;;;;;;4986779;28;19917;-74
2024/05/08 06:11:34;;;;;;;;;;;11.20;99.90;;;;;;4974372;28;19917;-74
2024/05/08 06:13:59;;;;;;;;;;;11.30;99.90;;;;;;4983701;28;19960;-74
2024/05/08 06:16:25;;;;;;;;;;;11.40;99.90;;;;;;4967700;28;19933;-74
2024/05/08 06:18:50;;;;;;;;;;;11.70;99.90;;;;;;4987678;28;20017;-74
2024/05/08 06:21:18;;;;;;;;;;;11.80;99.90;;;;;;4978784;28;20243;-75
2024/05/08 06:23:44;;;;;;;;;;;11.50;99.90;;;;;;4980128;28;20606;-74
2024/05/08 06:26:09;;;;;;;;;;;11.70;99.90;;;;;;4970485;28;21196;-75
2024/05/08 06:28:35;;;;;;;;;;;11.60;99.90;;;;;;4989552;28;19922;-75
2024/05/08 06:31:00;;;;;;;;;;;11.70;99.90;;;;;;4973493;28;20080;-75
2024/05/08 06:33:26;;;;;;;;;;;11.90;99.90;;;;;;4985871;28;20534;-74
2024/05/08 06:35:51;;;;;;;;;;;11.80;99.90;;;;;;4994522;28;19922;-74
2024/05/08 06:38:17;;;;;;;;;;;11.90;99.90;;;;;;4973151;28;19925;-75
2024/05/08 06:40:42;;;;;;;;;;;11.90;99.90;;;;;;4987699;28;19921;-75
2024/05/08 06:43:08;;;;;;;;;;;12.00;99.90;;;;;;4972723;28;19921;-74
2024/05/08 06:45:34;;;;;;;;;;;12.10;99.90;;;;;;4984659;28;20016;-75
2024/05/08 06:47:59;;;;;;;;;;;12.10;99.90;;;;;;4979021;28;19922;-75
2024/05/08 06:50:25;;;;;;;;;;;12.30;99.90;;;;;;4981238;28;19922;-76
2024/05/08 06:52:50;;;;;;;;;;;12.50;99.90;;;;;;4973126;28;19921;-74
2024/05/08 06:55:16;;;;;;;;;;;12.70;99.90;;;;;;4981387;28;19929;-74
2024/05/08 06:57:43;;;;;;;;;;;12.80;99.90;;;;;;4963194;28;19933;-74
2024/05/08 07:00:09;;;;;;;;;;;13.10;99.90;;;;;;4981879;28;20673;-74
2024/05/08 07:02:35;;;;;;;;;;;13.10;99.90;;;;;;4963487;28;20699;-74
2024/05/08 07:05:00;;;;;;;;;;;13.20;99.90;;;;;;4974897;28;19922;-75
2024/05/08 07:07:26;;;;;;;;;;;13.30;99.90;;;;;;4969732;28;19921;-75
2024/05/08 07:09:51;;;;;;;;;;;13.20;99.90;;;;;;4985668;28;20056;-75
2024/05/08 07:12:17;;;;;;;;;;;13.30;99.90;;;;;;4967807;28;19925;-75
2024/05/08 07:14:42;;;;;;;;;;;13.20;99.90;;;;;;4983743;28;20349;-75
2024/05/08 07:17:08;;;;;;;;;;;13.30;99.90;;;;;;4978616;28;20016;-74
2024/05/08 07:19:34;;;;;;;;;;;13.60;99.90;;;;;;4968514;28;19922;-73
2024/05/08 07:21:59;;;;;;;;;;;13.80;99.90;;;;;;4978453;28;19934;-73
2024/05/08 07:24:25;;;;;;;;;;;13.80;99.90;;;;;;4961600;28;20176;-73
2024/05/08 07:26:55;;;;;;;;;;;13.70;99.90;;;;;;4971997;28;20290;-74
2024/05/08 07:29:21;;;;;;;;;;;13.90;99.90;;;;;;4971240;28;19927;-74
2024/05/08 07:31:46;;;;;;;;;;;14.20;99.90;;;;;;4977802;28;19922;-73
2024/05/08 07:34:12;;;;;;;;;;;14.30;99.90;;;;;;4964297;28;19921;-72
2024/05/08 07:36:37;;;;;;;;;;;14.50;99.90;;;;;;4978751;28;19928;-73
2024/05/08 07:39:03;;;;;;;;;;;14.50;99.90;;;;;;4970193;28;19926;-72
2024/05/08 07:41:28;;;;;;;;;;;14.40;99.90;;;;;;4989828;28;20037;-73
2024/05/08 07:43:54;;;;;;;;;;;14.20;99.90;;;;;;4974773;28;19928;-75
2024/05/08 07:46:20;;;;;;;;;;;14.20;99.90;;;;;;4980488;28;20785;-73
2024/05/08 07:48:45;;;;;;;;;;;14.30;99.90;;;;;;4967148;28;20674;-75
2024/05/08 07:51:11;;;;;;;;;;;14.30;99.90;;;;;;4981510;28;20070;-73
2024/05/08 07:53:37;;;;;;;;;;;14.10;99.90;;;;;;4977933;28;19929;-73
2024/05/08 07:56:02;;;;;;;;;;;13.90;99.90;;;;;;4980838;28;19921;-76
2024/05/08 07:58:28;;;;;;;;;;;13.80;99.90;;;;;;4984231;28;19936;-74
2024/05/08 08:00:53;;;;;;;;;;;13.60;99.90;;;;;;4979644;28;20333;-72
2024/05/08 08:03:19;;;;;;;;;;;13.60;99.90;;;;;;4988682;28;20025;-77
2024/05/08 08:05:45;;;;;;;;;;;13.70;99.90;;;;;;4981248;28;20058;-74
2024/05/08 08:08:10;;;;;;;;;;;13.80;99.90;;;;;;4989713;28;19921;-76
2024/05/08 08:10:36;;;;;;;;;;;13.90;99.90;;;;;;4972416;28;19930;-78
2024/05/08 08:13:02;;;;;;;;;;;14.20;99.90;;;;;;4982382;28;20455;-75
2024/05/08 08:15:27;;;;;;;;;;;13.90;99.90;;;;;;4969511;28;20342;-74
2024/05/08 08:17:55;;;;;;;;;;;14.00;99.90;;;;;;4983166;28;19925;-73
2024/05/08 08:20:21;;;;;;;;;;;14.30;99.90;;;;;;4972459;28;20592;-73
2024/05/08 08:22:46;;;;;;;;;;;14.90;99.90;;;;;;4983567;28;20757;-75
2024/05/08 08:25:12;;;;;;;;;;;15.30;99.90;;;;;;4968878;28;19975;-75
2024/05/08 08:27:38;;;;;;;;;;;15.90;99.90;;;;;;4985734;28;19976;-74
2024/05/08 08:30:05;;;;;;;;;;;16.10;99.90;;;;;;4977182;28;19941;-74
2024/05/08 08:32:30;;;;;;;;;;;16.10;99.90;;;;;;4988241;28;19917;-74
2024/05/08 08:34:56;;;;;;;;;;;16.40;99.90;;;;;;4986513;28;20432;-75
2024/05/08 08:37:21;;;;;;;;;;;16.50;99.90;;;;;;4978767;28;20043;-74
2024/05/08 08:39:47;;;;;;;;;;;16.10;99.90;;;;;;4986091;28;19922;-73
2024/05/08 08:42:17;;;;;;;;;;;15.30;99.90;;;;;;4967034;28;20319;-76
2024/05/08 08:44:46;;;;;;;;;;;15.40;99.90;;;;;;4976336;28;19968;-75
2024/05/08 08:47:11;;;;;;;;;;;15.70;99.90;;;;;;4969411;28;20064;-79
2024/05/08 08:49:37;;;;;;;;;;;15.70;99.90;;;;;;4972561;28;20644;-75
2024/05/08 08:52:08;;;;;;;;;;;15.80;99.90;;;;;;4968744;28;20435;-79
2024/05/08 08:54:34;;;;;;;;;;;15.20;99.90;;;;;;4983300;28;20235;-77
2024/05/08 08:57:00;;;;;;;;;;;14.80;99.90;;;;;;4969627;28;20393;-75
2024/05/08 08:59:30;;;;;;;;;;;14.50;99.90;;;;;;4981877;28;19933;-75
2024/05/08 09:01:56;;;;;;;;;;;14.40;99.90;;;;;;4971102;28;20456;-79
2024/05/08 09:04:21;;;;;;;;;;;14.60;99.90;;;;;;4977260;28;19921;-76
2024/05/08 09:06:48;;;;;;;;;;;14.50;99.90;;;;;;4973296;28;20604;-79
2024/05/08 09:09:13;;;;;;;;;;;14.60;99.90;;;;;;4985131;28;20348;-78
2024/05/08 09:11:39;;;;;;;;;;;14.40;99.90;;;;;;4966271;28;19922;-76
2024/05/08 09:14:04;;;;;;;;;;;14.40;99.90;;;;;;4983661;28;19985;-76
2024/05/08 09:16:30;;;;;;;;;;;14.40;99.90;;;;;;4972298;28;19956;-75
2024/05/08 09:19:00;;;;;;;;;;;14.40;99.90;;;;;;4955781;28;21950;-73
2024/05/08 09:21:26;;;;;;;;;;;14.50;99.90;;;;;;4974939;28;19926;-77
2024/05/08 09:23:52;;;;;;;;;;;14.30;99.90;;;;;;4969615;28;19940;-77
2024/05/08 09:26:17;;;;;;;;;;;14.30;99.90;;;;;;4983973;28;19921;-77
2024/05/08 09:28:45;;;;;;;;;;;14.00;99.90;;;;;;4970734;28;19932;-78
2024/05/08 09:31:11;;;;;;;;;;;14.00;99.90;;;;;;4974869;28;20880;-77
2024/05/08 09:33:36;;;;;;;;;;;14.10;99.90;;;;;;4957257;28;20240;-77
2024/05/08 09:36:02;;;;;;;;;;;14.20;99.90;;;;;;4980127;28;19921;-76
2024/05/08 09:38:27;;;;;;;;;;;14.20;99.90;;;;;;4966205;28;19925;-76
2024/05/08 09:40:54;;;;;;;;;;;14.30;99.90;;;;;;4977762;28;20327;-77
2024/05/08 09:43:20;;;;;;;;;;;14.50;99.90;;;;;;4963421;28;19956;-76
2024/05/08 09:45:47;;;;;;;;;;;14.40;99.90;;;;;;4978402;28;19917;-76
2024/05/08 09:48:12;;;;;;;;;;;14.30;99.90;;;;;;4967186;28;19922;-76
2024/05/08 09:50:39;;;;;;;;;;;14.60;99.90;;;;;;4973032;28;19949;-76
2024/05/08 09:53:06;;;;;;;;;;;14.60;99.90;;;;;;4971861;28;20020;-76
2024/05/08 09:55:34;;;;;;;;;;;14.70;99.90;;;;;;4990661;28;19980;-75
2024/05/08 09:58:00;;;;;;;;;;;14.70;99.90;;;;;;4974905;28;20389;-76
2024/05/08 10:00:27;;;;;;;;;;;14.70;99.90;;;;;;4979508;28;19932;-76
2024/05/08 10:02:53;;;;;;;;;;;14.80;99.90;;;;;;4975489;28;19922;-76
2024/05/08 10:05:19;;;;;;;;;;;14.90;99.90;;;;;;4972698;28;19948;-76
2024/05/08 10:08:03;;;;;;;;;;;14.80;99.90;;;;;;4978639;28;19922;-77
2024/05/08 10:10:33;;;;;;;;;;;14.80;99.90;;;;;;4980503;28;20497;-78
2024/05/08 10:13:09;;;;;;;;;;;14.50;99.90;;;;;;4978292;28;20312;-75
2024/05/08 10:15:35;;;;;;;;;;;14.40;99.90;;;;;;4980599;28;19917;-77
2024/05/08 10:18:07;;;;;;;;;;;14.70;99.90;;;;;;4968061;28;20291;-76
2024/05/08 10:20:33;;;;;;;;;;;14.60;99.90;;;;;;4976246;28;19944;-76
2024/05/08 10:23:06;;;;;;;;;;;14.70;99.90;;;;;;4986969;28;19926;-76
2024/05/08 10:25:32;;;;;;;;;;;15.00;99.90;;;;;;4976782;28;20437;-74
2024/05/08 10:27:57;;;;;;;;;;;15.20;99.90;;;;;;4976036;28;19948;-76
2024/05/08 10:30:25;;;;;;;;;;;15.20;99.90;;;;;;4966515;28;20111;-76
2024/05/08 10:32:51;;;;;;;;;;;14.90;99.90;;;;;;4970486;28;19933;-74
2024/05/08 10:35:17;;;;;;;;;;;14.70;99.90;;;;;;4967224;28;19913;-73
2024/05/08 10:37:45;;;;;;;;;;;15.00;99.90;;;;;;4982871;28;20409;-76
2024/05/08 10:40:11;;;;;;;;;;;14.80;99.90;;;;;;4982561;28;19921;-76
2024/05/08 10:42:37;;;;;;;;;;;15.20;99.90;;;;;;4992324;28;20516;-76
2024/05/08 10:45:03;;;;;;;;;;;14.70;99.90;;;;;;4961565;28;19929;-73
2024/05/08 10:47:31;;;;;;;;;;;14.90;99.90;;;;;;4983442;28;19917;-76
2024/05/08 10:49:57;;;;;;;;;;;15.00;99.90;;;;;;4974555;28;20607;-75
2024/05/08 10:52:23;;;;;;;;;;;15.00;99.90;;;;;;4979136;28;20259;-76
2024/05/08 10:54:49;;;;;;;;;;;15.30;99.90;;;;;;4976554;28;20688;-75
2024/05/08 10:57:15;;;;;;;;;;;15.20;99.90;;;;;;4983318;28;19921;-76
2024/05/08 10:59:49;;;;;;;;;;;15.40;99.90;;;;;;4977303;28;20169;-75
2024/05/08 11:02:30;;;;;;;;;;;15.30;99.90;;;;;;4987055;28;19921;-75
2024/05/08 11:05:06;;;;;;;;;;;15.40;99.90;;;;;;4970699;28;19926;-75
2024/05/08 11:07:48;;;;;;;;;;;15.00;99.90;;;;;;4985051;28;19970;-75
2024/05/08 11:10:20;;;;;;;;;;;14.90;99.90;;;;;;4973471;28;20313;-75
2024/05/08 11:12:51;;;;;;;;;;;14.90;99.90;;;;;;4985558;28;19948;-75
2024/05/08 11:15:17;;;;;;;;;;;15.00;99.90;;;;;;4975679;28;19975;-77
2024/05/08 11:17:43;;;;;;;;;;;15.30;99.90;;;;;;4980919;28;20336;-76
2024/05/08 11:20:08;;;;;;;;;;;15.20;99.90;;;;;;4989894;28;20386;-79
2024/05/08 11:22:40;;;;;;;;;;;15.00;99.90;;;;;;4977652;28;20952;-76
2024/05/08 11:25:07;;;;;;;;;;;15.30;99.90;;;;;;4989023;28;20124;-79
2024/05/08 11:27:35;;;;;;;;;;;15.20;99.90;;;;;;4976174;28;20294;-73
2024/05/08 11:30:01;;;;;;;;;;;15.10;99.90;;;;;;4993756;28;19980;-75
2024/05/08 11:32:27;;;;;;;;;;;15.20;99.90;;;;;;4968623;28;21105;-75
2024/05/08 11:34:52;;;;;;;;;;;15.10;99.90;;;;;;4990765;28;19963;-75
2024/05/08 11:37:18;;;;;;;;;;;15.10;99.90;;;;;;4967058;28;19941;-75
2024/05/08 11:39:43;;;;;;;;;;;15.20;99.90;;;;;;4988197;28;19927;-73
2024/05/08 11:42:09;;;;;;;;;;;15.50;99.90;;;;;;4972363;28;19921;-73
2024/05/08 11:44:34;;;;;;;;;;;15.70;99.90;;;;;;4980396;28;19917;-72
2024/05/08 11:47:00;;;;;;;;;;;15.30;99.90;;;;;;4975482;28;19944;-73
2024/05/08 11:49:26;;;;;;;;;;;15.10;99.90;;;;;;4984918;28;20620;-73
2024/05/08 11:51:51;;;;;;;;;;;15.60;99.90;;;;;;4967142;28;19953;-73
2024/05/08 11:54:17;;;;;;;;;;;15.70;99.90;;;;;;4987349;28;19921;-73
2024/05/08 11:56:44;;;;;;;;;;;15.30;99.90;;;;;;4971904;28;19922;-72
2024/05/08 11:59:10;;;;;;;;;;;15.50;99.90;;;;;;4977302;28;19925;-73
2024/05/08 12:01:36;;;;;;;;;;;15.40;99.90;;;;;;4987782;28;19920;-72
2024/05/08 12:04:01;;;;;;;;;;;15.40;99.90;;;;;;4974505;28;19921;-72
2024/05/08 12:06:27;;;;;;;;;;;15.90;99.90;;;;;;4985470;28;19976;-75
2024/05/08 12:08:52;;;;;;;;;;;15.80;99.90;;;;;;4972150;28;19922;-73
2024/05/08 12:11:18;;;;;;;;;;;15.60;99.90;;;;;;4987115;28;20269;-72
2024/05/08 12:13:43;;;;;;;;;;;15.70;99.90;;;;;;4969600;28;20402;-73
2024/05/08 12:16:09;;;;;;;;;;;15.50;99.90;;;;;;4990014;28;20679;-72
2024/05/08 12:18:34;;;;;;;;;;;15.80;99.90;;;;;;4972361;28;19979;-72
2024/05/08 12:21:00;;;;;;;;;;;15.60;99.90;;;;;;4991592;28;20019;-72
2024/05/08 12:23:26;;;;;;;;;;;15.40;99.90;;;;;;4977543;28;20324;-72
2024/05/08 12:25:51;;;;;;;;;;;15.60;99.90;;;;;;4982748;28;19930;-73
2024/05/08 12:28:17;;;;;;;;;;;15.60;99.90;;;;;;4967673;28;20235;-72
2024/05/08 12:30:43;;;;;;;;;;;16.40;99.90;;;;;;4984470;28;19922;-73
2024/05/08 12:33:09;;;;;;;;;;;16.60;99.90;;;;;;4973426;28;20338;-74
2024/05/08 12:35:35;;;;;;;;;;;16.30;99.90;;;;;;4994170;28;19929;-73
2024/05/08 12:38:00;;;;;;;;;;;15.70;99.90;;;;;;4964396;28;19972;-74
2024/05/08 12:40:30;;;;;;;;;;;15.90;99.90;;;;;;4987082;28;20399;-72
2024/05/08 12:42:57;;;;;;;;;;;16.10;99.90;;;;;;4988427;28;19965;-73
2024/05/08 12:45:22;;;;;;;;;;;16.70;99.90;;;;;;4972329;28;19987;-73
2024/05/08 12:47:48;;;;;;;;;;;16.80;99.90;;;;;;4988412;28;20370;-72
2024/05/08 12:50:14;;;;;;;;;;;17.40;99.90;;;;;;4975923;28;19922;-73
2024/05/08 12:52:40;;;;;;;;;;;17.10;99.90;;;;;;4976985;28;19922;-72
2024/05/08 12:55:07;;;;;;;;;;;16.60;99.90;;;;;;4975066;28;20222;-72
2024/05/08 12:57:32;;;;;;;;;;;17.00;99.90;;;;;;4976708;28;20327;-72
2024/05/08 12:59:58;;;;;;;;;;;17.80;99.90;;;;;;4969968;28;20215;-72
2024/05/08 13:02:24;;;;;;;;;;;17.90;99.90;;;;;;4977616;28;19924;-74
2024/05/08 13:04:51;;;;;;;;;;;18.70;99.90;;;;;;4967606;28;19921;-75
2024/05/08 13:07:16;;;;;;;;;;;19.60;99.90;;;;;;4989208;28;19925;-73
2024/05/08 13:09:42;;;;;;;;;;;19.30;99.90;;;;;;4972479;28;20401;-73
2024/05/08 13:12:07;;;;;;;;;;;20.40;99.90;;;;;;4982378;28;20019;-73
2024/05/08 13:14:33;;;;;;;;;;;20.00;99.90;;;;;;4975801;28;19929;-73
2024/05/08 13:16:58;;;;;;;;;;;20.60;99.90;;;;;;4985791;28;20239;-74
2024/05/08 13:19:24;;;;;;;;;;;21.00;99.90;;;;;;4975758;28;19937;-73
2024/05/08 13:21:50;;;;;;;;;;;20.00;99.90;;;;;;4991608;28;19933;-74
2024/05/08 13:24:15;;;;;;;;;;;21.60;99.90;;;;;;4989461;28;19925;-74
2024/05/08 13:26:41;;;;;;;;;;;20.50;99.90;;;;;;4977598;28;19922;-73
2024/05/08 13:29:07;;;;;;;;;;;20.50;99.90;;;;;;4988852;28;20364;-73
2024/05/08 13:31:32;;;;;;;;;;;21.00;99.90;;;;;;4972683;28;19968;-74
2024/05/08 13:33:58;;;;;;;;;;;20.30;99.90;;;;;;4983139;28;19932;-74
2024/05/08 13:36:24;;;;;;;;;;;20.80;99.90;;;;;;4970010;28;19930;-74
2024/05/08 13:38:49;;;;;;;;;;;20.10;99.90;;;;;;4979481;28;20353;-74
2024/05/08 13:41:15;;;;;;;;;;;20.20;99.90;;;;;;4972274;28;20271;-74
2024/05/08 13:43:40;;;;;;;;;;;20.10;99.90;;;;;;5033325;22;20468;-73
2024/05/08 13:46:06;;;;;;;;;;;19.80;99.90;;;;;;4994727;28;19925;-72
2024/05/08 13:48:31;;;;;;;;;;;19.90;99.90;;;;;;5009310;28;19990;-74
2024/05/08 13:50:57;;;;;;;;;;;20.50;99.90;;;;;;4993306;28;20247;-74
2024/05/08 13:53:22;;;;;;;;;;;19.70;99.90;;;;;;5010440;28;19921;-74
2024/05/08 13:55:50;;;;;;;;;;;19.30;99.90;;;;;;4993922;28;20354;-76
2024/05/08 13:58:16;;;;;;;;;;;19.10;99.90;;;;;;4997381;28;19925;-79
2024/05/08 14:00:41;;;;;;;;;;;19.70;99.90;;;;;;4993382;28;20460;-75
2024/05/08 14:03:07;;;;;;;;;;;19.40;99.90;;;;;;5002742;28;19921;-74
2024/05/08 14:05:32;;;;;;;;;;;20.70;99.90;;;;;;4995314;28;20301;-73
2024/05/08 14:07:58;;;;;;;;;;;20.60;99.90;;;;;;4989400;28;20377;-73
2024/05/08 14:10:23;;;;;;;;;;;20.90;99.90;;;;;;4998914;28;20024;-73
2024/05/08 14:12:49;;;;;;;;;;;20.60;99.90;;;;;;4979415;28;19921;-77
2024/05/08 14:15:18;;;;;;;;;;;21.20;99.90;;;;;;5002441;28;20097;-75